createdAt,value
2022-08-03T00:01:11.505Z,99.43
2022-08-03T00:03:40.759Z,95.80
2022-08-03T00:06:09.393Z,94.16
2022-08-03T00:08:47.041Z,93.96
2022-08-03T00:11:15.816Z,94.73
2022-08-03T00:13:44.253Z,98.83
2022-08-03T00:16:46.563Z,99.65
2022-08-03T00:19:14.848Z,97.61
2022-08-03T00:21:43.360Z,98.18
2022-08-03T00:24:11.705Z,95.87
2022-08-03T00:26:40.849Z,97.49
2022-08-03T00:29:09.343Z,100.00
2022-08-03T00:31:52.198Z,100.00
2022-08-03T00:34:57.238Z,100.00
2022-08-03T00:37:15.033Z,100.00
2022-08-03T00:39:48.016Z,100.00
2022-08-03T00:42:18.066Z,100.00
2022-08-03T00:44:47.240Z,100.00
2022-08-03T00:47:15.936Z,100.00
2022-08-03T00:49:45.143Z,100.00
2022-08-03T00:52:20.679Z,100.00
2022-08-03T00:55:04.119Z,100.00
2022-08-03T00:57:33.860Z,100.00
2022-08-03T01:00:08.768Z,100.00
2022-08-03T01:02:47.119Z,100.00
2022-08-03T01:05:15.733Z,100.00
2022-08-03T01:08:06.871Z,100.00
2022-08-03T01:14:04.267Z,100.00
2022-08-03T01:17:19.857Z,100.00
2022-08-03T01:20:02.151Z,100.00
2022-08-03T01:22:32.084Z,100.00
2022-08-03T01:25:22.753Z,100.00
2022-08-03T01:27:53.828Z,100.00
2022-08-03T01:30:28.856Z,100.00
2022-08-03T01:33:16.520Z,100.00
2022-08-03T01:35:59.127Z,100.00
2022-08-03T01:38:37.747Z,100.00
2022-08-03T01:41:37.567Z,100.00
2022-08-03T01:44:27.788Z,100.00
2022-08-03T01:47:01.350Z,100.00
2022-08-03T01:49:38.853Z,100.00
2022-08-03T01:52:12.797Z,100.00
2022-08-03T01:54:45.842Z,100.00
2022-08-03T01:57:15.896Z,100.00
2022-08-03T02:02:33.179Z,100.00
2022-08-03T02:05:16.740Z,100.00
2022-08-03T02:07:50.173Z,100.00
2022-08-03T02:10:34.642Z,100.00
2022-08-03T02:13:07.854Z,100.00
2022-08-03T02:15:41.538Z,100.00
2022-08-03T02:18:11.050Z,100.00
2022-08-03T02:20:46.641Z,100.00
2022-08-03T02:23:28.171Z,100.00
2022-08-03T02:26:02.935Z,100.00
2022-08-03T02:28:41.933Z,100.00
2022-08-03T02:31:21.435Z,100.00
2022-08-03T02:33:54.028Z,100.00
2022-08-03T02:36:36.027Z,100.00
2022-08-03T02:39:05.754Z,100.00
2022-08-03T02:41:45.602Z,100.00
2022-08-03T02:44:17.603Z,100.00
2022-08-03T02:46:49.633Z,100.00
2022-08-03T02:52:04.509Z,100.00
2022-08-03T02:54:34.445Z,100.00
2022-08-03T02:57:08.345Z,100.00
2022-08-03T02:59:38.160Z,100.00
2022-08-03T03:02:19.402Z,100.00
2022-08-03T03:05:54.866Z,100.00
2022-08-03T03:07:51.859Z,100.00
2022-08-03T03:10:38.666Z,100.00
2022-08-03T03:13:10.139Z,100.00
2022-08-03T03:15:41.416Z,100.00
2022-08-03T03:18:33.343Z,100.00
2022-08-03T03:21:32.452Z,100.00
2022-08-03T03:24:09.472Z,100.00
2022-08-03T03:27:06.147Z,100.00
2022-08-03T03:32:37.463Z,100.00
2022-08-03T03:35:07.185Z,100.00
2022-08-03T03:37:35.694Z,100.00
2022-08-03T03:42:54.507Z,100.00
2022-08-03T03:45:24.478Z,100.00
2022-08-03T03:47:53.593Z,100.00
2022-08-03T03:50:24.310Z,100.00
2022-08-03T03:52:52.905Z,100.00
2022-08-03T03:55:23.156Z,100.00
2022-08-03T03:57:52.603Z,100.00
2022-08-03T04:00:22.423Z,100.00
2022-08-03T04:02:51.001Z,100.00
2022-08-03T04:05:40.948Z,100.00
2022-08-03T04:08:34.447Z,100.00
2022-08-03T04:11:10.924Z,100.00
2022-08-03T04:13:57.885Z,100.00
2022-08-03T04:17:01.885Z,100.00
2022-08-03T04:22:30.315Z,100.00
2022-08-03T04:25:10.092Z,100.00
2022-08-03T04:27:46.490Z,100.00
2022-08-03T04:30:37.990Z,100.00
2022-08-03T04:33:09.083Z,100.00
2022-08-03T04:36:01.451Z,100.00
2022-08-03T04:38:56.417Z,100.00
2022-08-03T04:41:27.008Z,100.00
2022-08-03T04:43:58.455Z,100.00
2022-08-03T04:46:52.742Z,100.00
2022-08-03T04:49:42.487Z,100.00
2022-08-03T04:52:12.029Z,100.00
2022-08-03T04:54:48.836Z,100.00
2022-08-03T04:57:22.539Z,100.00
2022-08-03T05:00:02.252Z,100.00
2022-08-03T05:03:20.316Z,100.00
2022-08-03T05:05:53.607Z,100.00
2022-08-03T05:08:32.258Z,100.00
2022-08-03T05:11:05.097Z,100.00
2022-08-03T05:13:37.985Z,100.00
2022-08-03T05:16:06.375Z,100.00
2022-08-03T05:18:36.118Z,100.00
2022-08-03T05:21:07.476Z,99.79
2022-08-03T05:23:36.515Z,99.71
2022-08-03T05:29:08.776Z,99.55
2022-08-03T05:31:39.799Z,98.49
2022-08-03T05:34:08.440Z,99.12
2022-08-03T05:36:36.996Z,98.36
2022-08-03T05:39:10.704Z,97.02
2022-08-03T05:41:39.531Z,95.87
2022-08-03T05:44:07.812Z,93.76
2022-08-03T05:46:43.999Z,91.66
2022-08-03T05:49:12.864Z,91.26
2022-08-03T05:51:41.259Z,91.32
2022-08-03T05:54:23.789Z,91.11
2022-08-03T05:57:12.019Z,90.36
2022-08-03T05:59:54.581Z,91.02
2022-08-03T06:02:27.431Z,90.50
2022-08-03T06:04:57.912Z,89.39
2022-08-03T06:07:26.308Z,88.42
2022-08-03T06:10:36.292Z,86.65
2022-08-03T06:12:45.082Z,85.09
2022-08-03T06:15:22.192Z,84.42
2022-08-03T06:17:51.807Z,84.20
2022-08-03T06:20:31.433Z,84.83
2022-08-03T06:23:01.405Z,83.07
2022-08-03T06:25:31.046Z,82.89
2022-08-03T06:28:00.249Z,82.36
2022-08-03T06:30:35.226Z,82.44
2022-08-03T06:33:08.258Z,82.09
2022-08-03T06:35:36.987Z,80.85
2022-08-03T06:38:17.613Z,80.23
2022-08-03T06:40:46.165Z,79.11
2022-08-03T06:43:17.247Z,79.09
2022-08-03T06:45:47.707Z,78.88
2022-08-03T06:48:22.435Z,76.69
2022-08-03T06:50:50.828Z,76.38
2022-08-03T06:53:19.757Z,75.71
2022-08-03T06:55:54.982Z,73.44
2022-08-03T06:58:28.090Z,73.54
2022-08-03T07:00:56.558Z,73.96
2022-08-03T07:03:25.364Z,72.86
2022-08-03T07:05:53.662Z,72.42
2022-08-03T07:08:33.933Z,69.91
2022-08-03T07:11:02.918Z,70.82
2022-08-03T07:13:32.664Z,69.65
2022-08-03T07:16:02.241Z,68.28
2022-08-03T07:18:40.973Z,65.87
2022-08-03T07:21:11.730Z,64.31
2022-08-03T07:23:55.121Z,64.11
2022-08-03T07:26:28.345Z,63.66
2022-08-03T07:29:04.721Z,60.90
2022-08-03T07:31:47.083Z,62.99
2022-08-03T07:34:19.827Z,61.85
2022-08-03T07:36:54.433Z,60.99
2022-08-03T07:39:23.988Z,58.16
2022-08-03T07:41:53.625Z,58.95
2022-08-03T07:44:29.445Z,57.54
2022-08-03T07:47:25.291Z,58.24
2022-08-03T07:50:15.669Z,55.43
2022-08-03T07:52:54.797Z,53.28
2022-08-03T07:55:27.683Z,52.45
2022-08-03T07:58:23.641Z,50.88
2022-08-03T08:00:56.374Z,50.36
2022-08-03T08:03:26.901Z,50.92
2022-08-03T08:05:57.760Z,50.29
2022-08-03T08:08:31.775Z,50.84
2022-08-03T08:11:00.445Z,49.53
2022-08-03T08:13:30.061Z,48.74
2022-08-03T08:16:08.950Z,49.03
2022-08-03T08:18:37.700Z,49.09
2022-08-03T08:21:06.076Z,48.72
2022-08-03T08:23:42.977Z,47.70
2022-08-03T08:26:18.627Z,47.15
2022-08-03T08:28:50.769Z,47.73
2022-08-03T08:31:22.044Z,47.36
2022-08-03T08:34:05.936Z,46.56
2022-08-03T08:36:35.590Z,45.94
2022-08-03T08:39:04.308Z,46.00
2022-08-03T08:41:34.938Z,47.15
2022-08-03T08:44:04.768Z,46.70
2022-08-03T08:46:38.736Z,46.28
2022-08-03T08:49:10.237Z,46.31
2022-08-03T08:51:54.685Z,46.65
2022-08-03T08:54:34.893Z,45.47
2022-08-03T08:57:12.478Z,44.23
2022-08-03T08:59:57.315Z,45.24
2022-08-03T09:02:30.594Z,45.28
2022-08-03T09:05:01.981Z,45.70
2022-08-03T09:07:49.090Z,45.48
2022-08-03T09:10:22.358Z,44.11
2022-08-03T09:12:53.490Z,43.91
2022-08-03T09:15:29.414Z,43.95
2022-08-03T09:18:32.202Z,43.46
2022-08-03T09:21:36.387Z,43.55
2022-08-03T09:24:20.569Z,43.15
2022-08-03T09:26:58.272Z,40.71
2022-08-03T09:29:26.740Z,41.61
2022-08-03T09:32:02.842Z,41.73
2022-08-03T09:34:33.168Z,42.39
2022-08-03T09:37:01.708Z,43.04
2022-08-03T09:39:40.271Z,43.06
2022-08-03T09:42:17.398Z,43.06
2022-08-03T09:44:48.978Z,42.44
2022-08-03T09:47:32.258Z,40.15
2022-08-03T09:50:06.348Z,38.87
2022-08-03T09:52:52.833Z,38.52
2022-08-03T09:56:33.292Z,38.18
2022-08-03T09:58:14.939Z,39.55
2022-08-03T10:00:55.237Z,39.00
2022-08-03T10:03:28.702Z,38.45
2022-08-03T10:05:59.975Z,37.74
2022-08-03T10:08:32.582Z,37.78
2022-08-03T10:11:01.175Z,36.72
2022-08-03T10:13:30.842Z,36.55
2022-08-03T10:16:21.600Z,36.49
2022-08-03T10:18:48.021Z,37.12
2022-08-03T10:21:20.526Z,37.52
2022-08-03T10:23:51.357Z,36.56
2022-08-03T10:26:22.849Z,37.50
2022-08-03T10:28:59.072Z,37.64
2022-08-03T10:31:54.467Z,37.37
2022-08-03T10:34:29.702Z,36.94
2022-08-03T10:37:01.505Z,36.40
2022-08-03T10:39:31.045Z,35.87
2022-08-03T10:42:02.610Z,35.84
2022-08-03T10:44:42.220Z,34.82
2022-08-03T10:47:11.846Z,34.22
2022-08-03T10:49:41.829Z,35.23
2022-08-03T10:52:32.465Z,35.21
2022-08-03T10:55:54.049Z,35.71
2022-08-03T10:58:53.291Z,35.22
2022-08-03T11:01:59.061Z,34.65
2022-08-03T11:04:30.495Z,33.45
2022-08-03T11:07:23.680Z,32.32
2022-08-03T11:09:56.453Z,32.50
2022-08-03T11:12:32.644Z,33.06
2022-08-03T11:15:05.256Z,33.00
2022-08-03T11:17:46.832Z,32.68
2022-08-03T11:21:13.018Z,33.17
2022-08-03T11:24:04.361Z,32.78
2022-08-03T11:27:14.981Z,31.53
2022-08-03T11:30:00.962Z,32.09
2022-08-03T11:32:38.716Z,31.54
2022-08-03T11:35:25.088Z,30.30
2022-08-03T11:38:01.943Z,30.00
2022-08-03T11:40:33.517Z,30.82
2022-08-03T11:43:04.159Z,31.09
2022-08-03T11:45:32.612Z,31.24
2022-08-03T11:48:15.234Z,30.16
2022-08-03T11:50:45.652Z,30.15
2022-08-03T11:53:18.963Z,31.09
2022-08-03T11:55:51.181Z,31.42
2022-08-03T11:59:10.607Z,31.08
2022-08-03T12:01:11.663Z,30.79
2022-08-03T12:03:51.203Z,30.57
2022-08-03T12:06:20.088Z,30.15
2022-08-03T12:08:49.043Z,29.98
2022-08-03T12:11:18.108Z,29.76
2022-08-03T12:14:28.910Z,30.03
2022-08-03T12:16:40.560Z,29.48
2022-08-03T12:19:16.759Z,28.98
2022-08-03T12:21:56.805Z,28.35
2022-08-03T12:24:41.996Z,26.99
2022-08-03T12:27:12.857Z,26.36
2022-08-03T12:29:58.350Z,25.94
2022-08-03T12:32:29.958Z,25.46
2022-08-03T12:35:02.294Z,25.60
2022-08-03T12:37:35.574Z,25.01
2022-08-03T12:40:10.425Z,24.53
2022-08-03T12:42:43.561Z,24.46
2022-08-03T12:45:26.406Z,23.44
2022-08-03T12:48:02.044Z,23.51
2022-08-03T12:50:37.322Z,22.92
2022-08-03T12:53:09.640Z,21.27
2022-08-03T12:55:57.097Z,21.61
2022-08-03T12:58:34.930Z,20.74
2022-08-03T13:01:09.564Z,19.99
2022-08-03T13:03:42.697Z,20.01
2022-08-03T13:06:16.845Z,20.25
2022-08-03T13:08:49.570Z,20.07
2022-08-03T13:11:47.645Z,19.99
2022-08-03T13:14:20.007Z,20.45
2022-08-03T13:16:50.509Z,21.05
2022-08-03T13:19:18.851Z,20.24
2022-08-03T13:22:01.851Z,18.98
2022-08-03T13:24:48.432Z,18.72
2022-08-03T13:28:12.468Z,19.32
2022-08-03T13:30:10.156Z,20.08
2022-08-03T13:32:39.152Z,21.51
2022-08-03T13:35:10.678Z,22.72
2022-08-03T13:37:50.400Z,22.75
2022-08-03T13:40:18.919Z,21.60
2022-08-03T13:42:54.236Z,20.18
2022-08-03T13:45:27.686Z,19.82
2022-08-03T13:47:58.556Z,21.00
2022-08-03T13:51:22.477Z,21.67
2022-08-03T13:53:54.744Z,21.94
2022-08-03T13:56:25.399Z,21.28
2022-08-03T13:58:54.249Z,21.06
2022-08-03T14:01:54.352Z,20.50
2022-08-03T14:04:15.834Z,20.54
2022-08-03T14:06:50.652Z,20.29
2022-08-03T14:09:21.583Z,21.06
2022-08-03T14:12:07.762Z,21.26
2022-08-03T14:14:37.138Z,21.03
2022-08-03T14:17:05.558Z,21.12
2022-08-03T14:19:34.594Z,21.12
2022-08-03T14:22:21.841Z,21.70
2022-08-03T14:24:50.221Z,22.26
2022-08-03T14:27:20.182Z,23.12
2022-08-03T14:29:49.618Z,23.33
2022-08-03T14:32:17.954Z,23.78
2022-08-03T14:34:46.321Z,23.42
2022-08-03T14:37:14.923Z,22.48
2022-08-03T14:40:00.242Z,21.91
2022-08-03T14:42:28.979Z,21.42
2022-08-03T14:45:03.630Z,20.85
2022-08-03T14:50:10.490Z,20.33
2022-08-03T14:50:41.015Z,20.75
2022-08-03T14:53:12.999Z,19.94
2022-08-03T14:55:50.471Z,20.04
2022-08-03T14:58:22.054Z,19.14
2022-08-03T15:00:52.574Z,18.74
2022-08-03T15:03:25.669Z,18.13
2022-08-03T15:05:56.905Z,16.93
2022-08-03T15:08:26.684Z,16.44
2022-08-03T15:10:55.828Z,17.06
2022-08-03T15:13:25.531Z,17.36
2022-08-03T15:15:54.886Z,17.12
2022-08-03T15:18:27.468Z,17.10
2022-08-03T15:20:55.690Z,17.44
2022-08-03T15:23:24.048Z,17.37
2022-08-03T15:26:03.289Z,17.62
2022-08-03T15:28:41.569Z,17.23
2022-08-03T15:31:09.886Z,17.83
2022-08-03T15:33:38.600Z,18.08
2022-08-03T15:36:07.233Z,18.47
2022-08-03T15:38:35.753Z,18.15
2022-08-03T15:41:14.016Z,17.81
2022-08-03T15:43:42.424Z,17.50
2022-08-03T15:46:29.252Z,17.91
2022-08-03T15:48:58.372Z,17.88
2022-08-03T15:51:26.788Z,18.32
2022-08-03T15:53:56.303Z,18.93
2022-08-03T15:56:24.767Z,18.62
2022-08-03T15:59:03.267Z,18.28
2022-08-03T16:01:41.606Z,17.76
2022-08-03T16:04:10.136Z,18.41
2022-08-03T16:06:38.783Z,18.18
2022-08-03T16:09:24.393Z,18.01
2022-08-03T16:11:56.567Z,18.05
2022-08-03T16:14:34.703Z,18.24
2022-08-03T16:17:04.959Z,18.27
2022-08-03T16:19:33.514Z,18.91
2022-08-03T16:22:01.991Z,19.28
2022-08-03T16:24:32.139Z,19.48
2022-08-03T16:27:00.877Z,19.52
2022-08-03T16:29:30.056Z,19.61
2022-08-03T16:31:58.293Z,19.68
2022-08-03T16:34:26.829Z,20.11
2022-08-03T16:36:55.219Z,20.50
2022-08-03T16:39:24.988Z,20.79
2022-08-03T16:42:01.293Z,20.50
2022-08-03T16:44:31.650Z,20.66
2022-08-03T16:47:27.870Z,20.83
2022-08-03T16:49:56.782Z,21.14
2022-08-03T16:52:26.409Z,20.60
2022-08-03T16:54:55.335Z,20.77
2022-08-03T16:57:56.748Z,20.81
2022-08-03T17:00:32.712Z,20.96
2022-08-03T17:03:12.414Z,21.07
2022-08-03T17:05:59.647Z,21.26
2022-08-03T17:08:30.147Z,21.06
2022-08-03T17:10:58.620Z,21.25
2022-08-03T17:13:39.717Z,21.33
2022-08-03T17:16:15.450Z,21.62
2022-08-03T17:18:50.033Z,21.44
2022-08-03T17:21:24.802Z,21.66
2022-08-03T17:24:18.643Z,22.36
2022-08-03T17:26:51.205Z,22.79
2022-08-03T17:29:25.143Z,23.22
2022-08-03T17:31:54.807Z,23.66
2022-08-03T17:34:26.484Z,23.96
2022-08-03T17:37:06.217Z,24.61
2022-08-03T17:39:58.354Z,25.73
2022-08-03T17:42:30.851Z,26.62
2022-08-03T17:45:03.541Z,27.01
2022-08-03T17:47:42.497Z,27.59
2022-08-03T17:53:15.465Z,29.45
2022-08-03T17:56:44.970Z,29.81
2022-08-03T17:59:44.405Z,30.85
2022-08-03T18:03:19.986Z,31.07
2022-08-03T18:08:52.431Z,32.63
2022-08-03T18:11:35.645Z,32.92
2022-08-03T18:14:16.463Z,33.55
2022-08-03T18:16:53.096Z,34.03
2022-08-03T18:20:02.879Z,34.87
2022-08-03T18:22:12.910Z,35.63
2022-08-03T18:24:42.439Z,36.07
2022-08-03T18:27:16.094Z,36.29
2022-08-03T18:29:50.243Z,35.77
2022-08-03T18:32:21.594Z,35.62
2022-08-03T18:34:58.445Z,35.83
2022-08-03T18:37:29.742Z,37.07
2022-08-03T18:40:12.870Z,37.73
2022-08-03T18:43:09.019Z,38.35
2022-08-03T18:45:56.007Z,37.97
2022-08-03T18:48:41.700Z,38.95
2022-08-03T18:51:24.184Z,38.98
2022-08-03T18:54:45.446Z,39.42
2022-08-03T18:57:30.355Z,39.45
2022-08-03T19:00:12.460Z,39.88
2022-08-03T19:02:49.746Z,39.94
2022-08-03T19:05:21.402Z,39.47
2022-08-03T19:08:00.000Z,39.75
2022-08-03T19:10:36.847Z,40.21
2022-08-03T19:13:55.215Z,40.38
2022-08-03T19:16:38.732Z,40.37
2022-08-03T19:19:14.518Z,40.57
2022-08-03T19:21:44.912Z,40.64
2022-08-03T19:24:14.399Z,41.06
2022-08-03T19:26:48.491Z,41.18
2022-08-03T19:29:22.827Z,41.14
2022-08-03T19:31:59.160Z,41.56
2022-08-03T19:34:30.505Z,42.01
2022-08-03T19:37:15.428Z,42.01
2022-08-03T19:39:44.601Z,42.33
2022-08-03T19:42:37.285Z,42.61
2022-08-03T19:45:11.290Z,42.10
2022-08-03T19:47:52.140Z,42.29
2022-08-03T19:50:21.386Z,42.49
2022-08-03T19:53:02.511Z,42.05
2022-08-03T19:55:36.619Z,42.72
2022-08-03T19:58:09.602Z,42.95
2022-08-03T20:00:49.247Z,43.32
2022-08-03T20:03:21.959Z,43.76
2022-08-03T20:05:55.104Z,43.96
2022-08-03T20:08:29.961Z,44.21
2022-08-03T20:11:01.634Z,44.79
2022-08-03T20:13:39.128Z,45.00
2022-08-03T20:16:08.370Z,45.17
2022-08-03T20:18:47.593Z,45.55
2022-08-03T20:21:19.096Z,45.55
2022-08-03T20:24:03.118Z,45.94
2022-08-03T20:30:04.939Z,46.67
2022-08-03T20:32:30.985Z,47.03
2022-08-03T20:35:01.516Z,47.20
2022-08-03T20:37:31.414Z,47.45
2022-08-03T20:39:59.765Z,47.79
2022-08-03T20:42:28.711Z,48.17
2022-08-03T20:45:05.644Z,48.55
2022-08-03T20:47:36.147Z,48.67
2022-08-03T20:50:07.661Z,48.85
2022-08-03T20:52:49.287Z,48.79
2022-08-03T20:55:47.877Z,49.34
2022-08-03T20:58:11.565Z,49.62
2022-08-03T21:00:44.669Z,49.96
2022-08-03T21:03:18.063Z,49.81
2022-08-03T21:11:25.375Z,52.29
2022-08-03T21:13:04.462Z,28.36
2022-08-03T21:13:08.028Z,51.24
2022-08-03T21:14:04.475Z,53.64
2022-08-03T21:16:39.809Z,54.46
2022-08-03T21:19:09.356Z,55.26
2022-08-03T21:21:39.567Z,55.87
2022-08-03T21:24:11.451Z,56.87
2022-08-03T21:29:25.024Z,58.92
2022-08-03T21:31:53.788Z,59.25
2022-08-03T21:34:22.682Z,59.51
2022-08-03T21:36:51.362Z,58.36
2022-08-03T21:39:19.983Z,58.59
2022-08-03T21:41:48.631Z,57.49
2022-08-03T21:44:28.873Z,59.01
2022-08-03T21:47:00.365Z,58.92
2022-08-03T21:49:52.149Z,60.20
2022-08-03T21:52:22.713Z,60.40
2022-08-03T21:54:54.463Z,60.13
2022-08-03T21:57:26.218Z,60.64
2022-08-03T21:59:57.584Z,60.81
2022-08-03T22:02:31.531Z,60.74
2022-08-03T22:05:16.264Z,60.80
2022-08-03T22:07:45.735Z,61.35
2022-08-03T22:10:17.049Z,59.59
2022-08-03T22:12:45.458Z,58.84
2022-08-03T22:15:15.750Z,58.70
2022-08-03T22:18:23.534Z,59.59
2022-08-03T22:21:01.421Z,58.91
2022-08-03T22:23:36.843Z,59.56
2022-08-03T22:26:11.097Z,59.07
2022-08-03T22:28:40.564Z,59.20
2022-08-03T22:31:30.892Z,60.13
2022-08-03T22:33:58.405Z,60.51
2022-08-03T22:36:27.518Z,61.00
2022-08-03T22:39:06.703Z,60.77
2022-08-03T22:41:35.325Z,60.54
2022-08-03T22:44:04.423Z,61.23
2022-08-03T22:46:34.352Z,61.24
2022-08-03T22:49:03.684Z,62.09
2022-08-03T22:51:34.806Z,62.14
2022-08-03T22:54:05.043Z,62.25
2022-08-03T22:56:34.356Z,62.26
2022-08-03T22:59:39.187Z,63.28
2022-08-03T23:02:00.398Z,62.99
2022-08-03T23:04:34.397Z,62.54
2022-08-03T23:07:05.347Z,63.40
2022-08-03T23:09:38.924Z,63.91
2022-08-03T23:12:08.346Z,63.11
2022-08-03T23:14:40.279Z,63.79
2022-08-03T23:17:09.881Z,64.00
2022-08-03T23:25:15.682Z,67.73
2022-08-03T23:27:47.958Z,66.57
2022-08-03T23:30:42.865Z,68.50
2022-08-03T23:33:17.166Z,68.25
2022-08-03T23:36:22.648Z,68.88
2022-08-03T23:38:57.120Z,69.29
2022-08-03T23:41:50.010Z,69.70
2022-08-03T23:47:05.199Z,66.89
2022-08-03T23:49:33.775Z,69.13
2022-08-03T23:52:06.277Z,66.16
2022-08-03T23:54:45.227Z,69.86
2022-08-03T23:57:32.911Z,71.84
